Portada
METAR-TAF:

METAR-TAF

Aeroports :

Pian Rosa, Itàlia

latitud: 45-56N, longitud: 007-42E, altitud: 3480 m

Observació

L'informe es va fer fa 28 minuts, a les 20:55 UTC
Vent 17 kt del Sud
Temperatura 1°C
Humitat 93%
Pressió 1023 hPa
Visibilitat: 0200 m
boira

METAR: LIMH 222055Z 19017KT 0200 FG VV/// 01/00 Q1023 RMK MON INVIS VAL INVIS VIS MIN 0200

Hora: 23:23 (21:23 UTC)


TAF: manca

Observacions i pronòstics meteorològics de més de 4000 aeroports (METAR i TAF).

Les estacions disponibles són els punts grocs i vermells al mapa.

Posi el ratolí al punt desitjat per veure el nom de l'estació.

Feu clic per veure les observacions i els pronòstics meteorològics.

Per canviar el mapa: feu clic els botons verds amb una creu de color negre per apropar; al botó verd amb un guió per allunyar la imatge; o en les fletxes verdes per a mapes adjacents.


METAR-TAF: